Погода Влосеньна 2 недели

Нижнесилезское воеводство, Польша

17 - 30 июля
  • 17июля
    Сегодня
    +14°
    +26°
    Облачно с прояснениями
    ВремяПогодаТемператураВлажностьДавлениеВетер, м/сВероятность осадков
    02:00Ясно и безоблачно+18°C65 %743 мм2.6 м/с2 %
    05:00Ясно и безоблачно+16°C75 %744 мм1.9 м/с2 %
    08:00Небольшая облачность+20°C62 %745 мм2.6 м/с2 %
    11:00Облачно с прояснениями+23°C52 %745 мм4.0 м/с3 %
    14:00Облачно с прояснениями+25°C43 %745 мм3.7 м/с2 %
    17:00Облачно с прояснениями+24°C43 %745 мм5.2 м/с8 %
    20:00Ясно и безоблачно+22°C54 %745 мм3.1 м/с2 %
    23:00Ясно и безоблачно+18°C71 %746 мм1.4 м/с2 %
  • 18июля
    Четверг
    +15°
    +25°
    Облачно с прояснениями
    ВремяПогодаТемператураВлажностьДавлениеВетер, м/сВероятность осадков
    02:00Ясно и безоблачно+16°C76 %747 мм1.3 м/с2 %
    05:00Ясно и безоблачно+15°C87 %747 мм1.3 м/с2 %
    08:00Ясно и безоблачно+19°C72 %748 мм1.3 м/с2 %
    11:00Практически безоблачно+22°C55 %748 мм2.3 м/с2 %
    14:00Облачно с прояснениями+24°C47 %748 мм2.3 м/с4 %
    17:00Облачно с прояснениями+25°C44 %747 мм3.1 м/с2 %
    20:00Облачно с прояснениями+23°C56 %747 мм2.4 м/с2 %
    23:00Облачно с прояснениями+19°C71 %747 мм1.9 м/с2 %
  • 19июля
    Пятница
    +15°
    +27°
    Облачно с прояснениями
    ВремяПогодаТемператураВлажностьДавлениеВетер, м/сВероятность осадков
    02:00Небольшая облачность+18°C79 %747 мм1.4 м/с2 %
    05:00Ясно и безоблачно+16°C83 %746 мм1.1 м/с2 %
    08:00Небольшая облачность+20°C66 %747 мм1.4 м/с2 %
    11:00Небольшая облачность+25°C45 %747 мм2.3 м/с2 %
    14:00Облачно с прояснениями+27°C40 %746 мм2.0 м/с2 %
    17:00Практически безоблачно+27°C39 %745 мм3.3 м/с2 %
    20:00Практически безоблачно+24°C58 %744 мм2.8 м/с2 %
    23:00Ясно и безоблачно+21°C66 %744 мм2.6 м/с2 %
  • 20июля
    Суббота
    +16°
    +29°
    Небольшая облачность
    ВремяПогодаТемператураВлажностьДавлениеВетер, м/сВероятность осадков
    02:00Ясно и безоблачно+18°C78 %744 мм1.6 м/с2 %
    05:00Ясно и безоблачно+16°C70 %743 мм1.4 м/с2 %
    08:00Ясно и безоблачно+21°C63 %743 мм1.7 м/с2 %
    11:00Ясно и безоблачно+26°C42 %743 мм2.3 м/с2 %
    14:00Небольшая облачность+28°C34 %742 мм2.2 м/с5 %
    17:00Небольшая облачность+29°C32 %740 мм3.0 м/с5 %
    20:00Ясно и безоблачно+26°C45 %740 мм3.6 м/с5 %
    23:00Ясно и безоблачно+22°C59 %740 мм2.6 м/с2 %
  • 21июля
    Воскресенье
    +16°
    +31°
    Ясно и безоблачно
    ВремяПогодаТемператураВлажностьДавлениеВетер, м/сВероятность осадков
    02:00Ясно и безоблачно+18°C73 %740 мм1.7 м/с2 %
    05:00Ясно и безоблачно+17°C86 %739 мм2.0 м/с2 %
    08:00Ясно и безоблачно+23°C65 %738 мм2.6 м/с2 %
    11:00Ясно и безоблачно+28°C38 %738 мм3.9 м/с2 %
    14:00Ясно и безоблачно+30°C35 %737 мм3.2 м/с8 %
    17:00Ясно и безоблачно+31°C35 %735 мм4.8 м/с18 %
    20:00Ясно и безоблачно+26°C44 %735 мм3.3 м/с30 %
    23:00Ясно и безоблачно+22°C63 %734 мм2.0 м/с30 %
Мы используем cookies
Соглашаюсь